Time;durP1;ratioP1;P1;durP2;ratioP2;P2;SDS_P1;SDS_P2;PMS_P1;PMS_P2;Temp;Humidity;BMP_temperature;BMP_pressure;BME280_temperature;BME280_humidity;BME280_pressure;Samples;Min_cycle;Max_cycle;Signal;HPM_P1;HPM_P2
2022/06/09 01:55:03;;;;;;;2.72;1.40;;;20.20;94.50;;;;;;5156720;24;20934;31
2022/06/09 02:00:30;;;;;;;2.35;1.33;;;20.40;94.60;;;;;;4980341;24;20066;-89
2022/06/09 02:03:13;;;;;;;3.63;1.70;;;20.50;94.50;;;;;;4774012;30;20111;-86
2022/06/09 02:08:52;;;;;;;4.15;1.30;;;20.20;94.80;;;;;;4778438;24;20461;-82
2022/06/09 02:11:24;;;;;;;5.07;1.80;;;20.80;95.00;;;;;;4738148;30;20375;-88
2022/06/09 02:13:52;;;;;;;3.17;1.40;;;20.20;95.20;;;;;;4753037;30;20044;-80
2022/06/09 02:16:21;;;;;;;5.93;1.65;;;20.10;95.10;;;;;;4738362;30;20055;-80
2022/06/09 02:18:50;;;;;;;4.03;1.63;;;20.20;95.10;;;;;;4753300;30;20633;-89
2022/06/09 02:21:29;;;;;;;5.03;1.85;;;20.40;94.80;;;;;;4752834;30;20584;-79
2022/06/09 02:23:58;;;;;;;3.67;1.67;;;20.40;94.60;;;;;;4753173;30;20359;-88
2022/06/09 02:26:24;;;;;;;2.67;1.60;;;20.50;94.90;;;;;;4753147;30;20081;-80
2022/06/09 02:29:05;;;;;;;6.75;1.63;;;20.40;94.80;;;;;;4752733;30;20040;-83
2022/06/09 02:31:32;;;;;;;5.95;1.65;;;20.40;94.60;;;;;;4753229;30;20063;-80
2022/06/09 02:33:58;;;;;;;5.20;1.65;;;20.30;94.50;;;;;;4738129;30;20048;-90
2022/06/09 02:36:43;;;;;;;2.72;1.42;;;19.90;94.90;;;;;;4753327;30;20319;-83
2022/06/09 02:39:11;;;;;;;6.97;1.77;;;19.60;96.00;;;;;;4738801;30;20043;-89
2022/06/09 02:41:37;;;;;;;5.22;1.85;;;19.30;94.80;;;;;;4756507;30;20043;-88
2022/06/09 02:44:03;;;;;;;7.00;2.10;;;19.00;95.60;;;;;;4756741;30;20370;-79
2022/06/09 02:46:30;;;;;;;4.25;1.63;;;19.10;97.00;;;;;;4742169;30;20431;-82
2022/06/09 02:49:12;;;;;;;4.20;1.65;;;18.90;95.60;;;;;;4785076;30;20043;-81
2022/06/09 02:54:27;;;;;;;7.03;2.40;;;19.40;97.70;;;;;;4796975;24;20147;-84
2022/06/09 02:56:53;;;;;;;4.13;1.73;;;17.30;98.40;;;;;;4793254;24;20094;-86
2022/06/09 02:59:22;;;;;;;5.60;2.13;;;18.80;97.20;;;;;;4778286;30;20044;-91
2022/06/09 03:01:53;;;;;;;6.45;1.90;;;18.20;98.00;;;;;;4777857;30;20032;-87
2022/06/09 03:04:37;;;;;;;5.35;2.03;;;18.20;98.80;;;;;;4777886;30;20038;-88
2022/06/09 03:07:03;;;;;;;2.92;1.30;;;18.30;99.20;;;;;;4785680;24;20059;-84
2022/06/09 03:09:42;;;;;;;4.13;1.55;;;18.20;98.50;;;;;;4777028;30;20204;-82
2022/06/09 03:12:43;;;;;;;4.90;2.28;;;18.30;99.10;;;;;;4777952;30;20599;-86
2022/06/09 03:15:21;;;;;;;6.22;1.80;;;19.30;97.70;;;;;;4778111;30;20039;-91
2022/06/09 03:17:47;;;;;;;4.32;1.45;;;18.40;97.80;;;;;;4777654;30;20032;-82
2022/06/09 03:20:23;;;;;;;4.60;1.67;;;18.60;97.50;;;;;;4776824;30;20054;-91
2022/06/09 03:22:49;;;;;;;5.03;1.90;;;18.40;97.90;;;;;;4777474;29;20019;-83
2022/06/09 03:25:14;;;;;;;4.53;1.65;;;17.40;99.20;;;;;;4777397;30;20205;-80
2022/06/09 03:27:41;;;;;;;5.57;1.77;;;18.40;98.10;;;;;;4777517;30;20269;-81
2022/06/09 03:30:13;;;;;;;4.45;1.70;;;18.50;97.00;;;;;;4777447;30;20582;-91
2022/06/09 03:32:39;;;;;;;11.10;2.05;;;18.40;97.20;;;;;;4777621;30;20028;-89
2022/06/09 03:35:37;;;;;;;2.95;1.48;;;17.90;97.70;;;;;;4777422;30;20360;-81
2022/06/09 03:38:04;;;;;;;5.60;1.85;;;19.70;98.70;;;;;;4739061;30;20779;-79
2022/06/09 03:40:54;;;;;;;5.15;2.13;;;18.70;97.30;;;;;;4739887;30;20356;-86
2022/06/09 03:43:37;;;;;;;6.75;1.98;;;18.10;97.60;;;;;;4738410;30;20119;-86
2022/06/09 03:46:07;;;;;;;2.72;1.65;;;18.30;98.10;;;;;;4738887;30;20032;-84
2022/06/09 03:48:51;;;;;;;4.55;2.20;;;18.60;97.90;;;;;;4739130;30;20043;-92
2022/06/09 03:51:23;;;;;;;3.88;1.67;;;18.30;96.40;;;;;;4737809;30;20037;-90
2022/06/09 03:53:49;;;;;;;3.20;1.60;;;18.80;97.30;;;;;;4756289;24;20074;-77
2022/06/09 03:56:21;;;;;;;5.15;1.92;;;19.20;98.00;;;;;;4783965;24;20067;-91
2022/06/09 03:59:02;;;;;;;3.08;1.50;;;19.40;96.80;;;;;;4776129;30;20173;-86
2022/06/09 04:01:34;;;;;;;3.33;1.55;;;18.40;97.90;;;;;;4775226;30;20031;-87
2022/06/09 04:04:22;;;;;;;2.70;1.42;;;18.70;97.10;;;;;;4777181;30;20027;-80
2022/06/09 04:07:04;;;;;;;3.50;1.58;;;18.90;97.10;;;;;;4738475;30;20700;-89
2022/06/09 04:12:16;;;;;;;4.40;1.80;;;;;;;;;;4830974;24;20055;-82
2022/06/09 04:14:42;;;;;;;2.55;1.50;;;19.70;95.10;;;;;;4775978;30;20656;-90
2022/06/09 04:17:44;;;;;;;4.03;1.42;;;19.90;95.10;;;;;;4776904;29;20031;-79
2022/06/09 04:20:11;;;;;;;4.13;1.75;;;20.90;95.00;;;;;;4776465;30;20590;-78
2022/06/09 04:22:49;;;;;;;3.65;1.65;;;20.00;93.60;;;;;;4775570;30;20027;-83
2022/06/09 04:25:16;;;;;;;6.05;1.73;;;19.70;94.70;;;;;;4790898;24;20130;-79
2022/06/09 04:28:01;;;;;;;2.97;1.60;;;19.70;94.90;;;;;;4775344;30;20040;-87
2022/06/09 04:33:30;;;;;;;6.50;2.00;;;20.10;94.10;;;;;;4789893;24;20678;-87
2022/06/09 04:35:57;;;;;;;3.53;1.45;;;20.10;94.60;;;;;;4824444;24;20079;-78
2022/06/09 04:38:26;;;;;;;3.92;1.70;;;20.00;94.50;;;;;;4775493;30;20043;-89
2022/06/09 04:41:01;;;;;;;6.32;2.05;;;20.00;94.50;;;;;;4775981;30;20027;-89
2022/06/09 04:43:29;;;;;;;5.35;2.03;;;21.30;95.00;;;;;;4775017;30;20058;-90
2022/06/09 04:45:57;;;;;;;10.60;2.13;;;19.90;94.30;;;;;;4775308;30;20027;-84
2022/06/09 04:48:33;;;;;;;5.68;2.05;;;20.20;94.30;;;;;;4782390;24;20765;-91
2022/06/09 04:50:59;;;;;;;6.68;2.22;;;20.20;94.10;;;;;;4776011;30;20035;-80
2022/06/09 04:53:25;;;;;;;4.55;1.90;;;20.40;93.90;;;;;;4775646;30;20043;-79
2022/06/09 04:56:09;;;;;;;4.90;1.70;;;20.50;93.90;;;;;;4776096;30;20024;-90
2022/06/09 04:58:57;;;;;;;;;;;20.60;93.50;;;;;;4774969;30;20441;-82
2022/06/09 05:01:27;;;;;;;5.95;2.45;;;20.70;93.70;;;;;;4775057;30;19909;-86
2022/06/09 05:03:52;;;;;;;5.75;2.20;;;20.60;93.70;;;;;;4780566;24;20059;-84
2022/06/09 05:06:20;;;;;;;5.13;2.20;;;20.50;93.70;;;;;;4775248;30;20123;-83
2022/06/09 05:08:50;;;;;;;4.03;2.15;;;20.60;93.40;;;;;;4775950;30;20027;-90
2022/06/09 05:11:16;;;;;;;8.35;2.80;;;20.70;93.30;;;;;;4774855;30;20024;-85
2022/06/09 05:13:42;;;;;;;6.35;2.53;;;20.70;93.20;;;;;;4773373;30;20043;-87
2022/06/09 05:16:09;;;;;;;4.88;2.45;;;20.80;93.40;;;;;;4774076;30;20027;-81
2022/06/09 05:18:36;;;;;;;6.70;2.70;;;20.80;93.20;;;;;;4774552;30;20655;-83
2022/06/09 05:21:02;;;;;;;6.20;2.60;;;20.80;93.00;;;;;;4774610;30;20027;-79
2022/06/09 05:23:28;;;;;;;6.78;3.38;;;20.90;93.20;;;;;;4774845;30;20034;-82
2022/06/09 05:25:57;;;;;;;5.53;2.40;;;20.50;93.00;;;;;;4774354;30;20023;-79
2022/06/09 05:28:24;;;;;;;5.03;2.28;;;19.90;94.80;;;;;;4774592;30;20046;-81
2022/06/09 05:30:50;;;;;;;8.15;2.75;;;20.20;94.10;;;;;;4772797;30;20113;-88
2022/06/09 05:33:16;;;;;;;5.85;2.80;;;20.50;93.80;;;;;;4774397;30;20185;-88
2022/06/09 05:35:43;;;;;;;8.85;2.60;;;18.70;93.00;;;;;;4774519;30;20019;-91
2022/06/09 05:46:27;;;;;;;7.47;3.13;;;20.90;93.40;;;;;;4774807;30;20035;-86
2022/06/09 05:48:52;;;;;;;6.57;3.03;;;20.60;93.70;;;;;;4775389;30;20028;-78
2022/06/09 05:51:18;;;;;;;6.80;3.00;;;20.50;93.80;;;;;;4775524;30;20027;-82
2022/06/09 05:53:45;;;;;;;7.32;3.20;;;20.50;94.10;;;;;;4781046;30;20035;-84
2022/06/09 05:56:11;;;;;;;6.75;3.20;;;19.90;94.70;;;;;;4784159;30;20159;-82
2022/06/09 05:58:37;;;;;;;6.47;2.90;;;20.20;94.70;;;;;;4786136;30;20273;-84
2022/06/09 06:01:06;;;;;;;8.48;4.00;;;20.20;94.80;;;;;;4787702;30;20647;-85
2022/06/09 06:03:34;;;;;;;6.22;2.53;;;19.60;95.30;;;;;;4776687;30;20047;-86
2022/06/09 06:08:43;;;;;;;7.53;3.42;;;20.10;94.90;;;;;;4778374;30;20068;-83
2022/06/09 06:11:09;;;;;;;5.70;2.45;;;20.10;95.10;;;;;;4775193;30;20039;-84
2022/06/09 06:13:35;;;;;;;5.70;2.78;;;20.30;94.70;;;;;;4777574;29;20110;-88
2022/06/09 06:16:01;;;;;;;7.00;2.50;;;20.50;94.50;;;;;;4778606;30;20127;-87
2022/06/09 06:19:14;;;;;;;10.18;4.10;;;20.60;94.70;;;;;;4779827;30;20123;-89
2022/06/09 06:34:36;;;;;;;5.88;2.38;;;20.40;95.20;;;;;;4989667;24;20059;-93
2022/06/09 06:37:02;;;;;;;7.03;2.90;;;20.80;94.60;;;;;;4778708;30;20536;-91
2022/06/09 06:39:31;;;;;;;5.50;2.65;;;20.90;94.30;;;;;;4777755;30;20131;-93
2022/06/09 06:42:06;;;;;;;7.35;3.60;;;21.00;94.60;;;;;;4777879;30;20058;-91
2022/06/09 06:44:32;;;;;;;9.85;3.70;;;20.70;94.90;;;;;;4777813;30;20027;-90
2022/06/09 06:46:58;;;;;;;8.38;2.60;;;20.60;95.20;;;;;;4778707;30;20031;-88
2022/06/09 06:49:30;;;;;;;7.75;3.45;;;20.70;95.10;;;;;;4776825;30;20035;-89
2022/06/09 06:51:55;;;;;;;10.75;4.30;;;20.50;95.10;;;;;;4776744;30;20043;-87
2022/06/09 06:54:22;;;;;;;6.60;2.88;;;20.60;95.20;;;;;;4776633;30;20100;-85
2022/06/09 06:56:47;;;;;;;7.60;2.83;;;20.50;95.60;;;;;;4776047;30;20034;-89
2022/06/09 06:59:13;;;;;;;6.80;2.67;;;20.80;95.00;;;;;;4777182;30;20027;-86
2022/06/09 07:01:48;;;;;;;8.10;3.72;;;21.20;94.60;;;;;;4801226;24;20055;-91
2022/06/09 07:04:16;;;;;;;9.55;3.47;;;21.50;94.80;;;;;;4777206;30;20032;-88
2022/06/09 07:06:42;;;;;;;9.38;4.50;;;;;;;;;;4776649;30;20027;-87
2022/06/09 07:09:14;;;;;;;6.88;3.22;;;21.20;93.90;;;;;;4777672;30;20103;-87
2022/06/09 07:12:17;;;;;;;11.63;4.38;;;21.30;94.30;;;;;;4775942;30;20166;-87
2022/06/09 07:14:46;;;;;;;8.98;4.35;;;20.30;93.40;;;;;;4775729;30;20107;-85
2022/06/09 07:17:11;;;;;;;9.00;4.20;;;21.30;93.70;;;;;;4782330;24;20055;-84
2022/06/09 07:19:41;;;;;;;9.02;3.67;;;21.20;94.60;;;;;;4774761;30;20538;-82
2022/06/09 07:22:07;;;;;;;5.93;3.00;;;21.70;94.40;;;;;;4774589;30;20208;-86
2022/06/09 07:24:43;;;;;;;8.85;4.43;;;21.20;94.30;;;;;;4775887;30;20031;-88
2022/06/09 07:27:18;;;;;;;9.85;4.18;;;21.70;94.40;;;;;;4775060;29;20057;-91
2022/06/09 07:29:43;;;;;;;7.90;3.45;;;22.60;94.00;;;;;;4784153;30;20023;-86
2022/06/09 07:32:09;;;;;;;11.55;4.05;;;21.50;94.30;;;;;;4780480;30;20114;-88
2022/06/09 07:34:36;;;;;;;10.27;4.65;;;21.60;93.70;;;;;;4781198;30;20307;-89
2022/06/09 07:37:03;;;;;;;9.38;4.63;;;21.70;94.10;;;;;;4782470;30;20122;-89
2022/06/09 07:39:36;;;;;;;9.55;4.82;;;21.10;93.90;;;;;;4777076;30;20031;-90
2022/06/09 07:42:02;;;;;;;10.55;5.07;;;21.70;94.00;;;;;;4777849;30;20031;-91
2022/06/09 07:44:37;;;;;;;8.38;3.58;;;21.60;94.20;;;;;;4778111;30;20054;-92
2022/06/09 07:47:05;;;;;;;9.60;4.38;;;21.60;93.80;;;;;;4775977;30;20636;-88
2022/06/09 07:49:32;;;;;;;8.52;4.68;;;21.70;93.90;;;;;;4776606;30;20027;-89
2022/06/09 07:52:07;;;;;;;7.95;3.95;;;21.80;93.50;;;;;;4776901;30;20042;-91
2022/06/09 07:54:39;;;;;;;6.28;2.40;;;21.80;92.70;;;;;;4777188;30;20590;-91
2022/06/09 07:57:11;;;;;;;9.25;3.45;;;21.90;93.20;;;;;;4776966;30;20023;-88
2022/06/09 07:59:37;;;;;;;6.60;3.05;;;22.30;92.30;;;;;;4776550;30;20039;-92
2022/06/09 08:02:15;;;;;;;8.00;3.95;;;22.40;92.30;;;;;;4782914;24;20531;-89
2022/06/09 08:04:48;;;;;;;7.32;3.10;;;22.90;90.90;;;;;;4774273;30;20238;-87
2022/06/09 08:07:13;;;;;;;6.70;2.72;;;22.50;91.60;;;;;;4760188;30;20041;-86
2022/06/09 08:14:56;;;;;;;8.82;3.15;;;22.90;89.40;;;;;;3498247;24;21368;-89
2022/06/09 08:17:25;;;;;;;13.75;5.22;;;23.20;90.20;;;;;;4783965;24;20063;-89
2022/06/09 08:20:01;;;;;;;7.32;3.00;;;23.00;87.00;;;;;;4920113;24;20050;-87
2022/06/09 08:22:41;;;;;;;5.82;1.80;;;23.60;88.70;;;;;;4776295;30;20420;-88
2022/06/09 08:25:17;;;;;;;6.07;1.88;;;22.80;83.50;;;;;;4775741;30;20032;-88
2022/06/09 08:27:47;;;;;;;3.30;1.55;;;22.80;82.90;;;;;;4781221;24;20404;-88
2022/06/09 08:30:25;;;;;;;4.43;1.90;;;22.80;83.50;;;;;;4782146;24;20060;-87
2022/06/09 08:35:32;;;;;;;9.45;3.45;;;22.60;89.20;;;;;;4779922;24;20500;-88
2022/06/09 08:41:20;;;;;;;8.10;3.95;;;22.40;90.90;;;;;;5070740;24;20093;-88
2022/06/09 08:44:22;;;;;;;6.15;3.03;;;21.80;90.70;;;;;;4774032;30;20038;-87
2022/06/09 08:49:53;;;;;;;7.45;3.38;;;;;;;;;;4786086;24;20059;-87
2022/06/09 08:53:12;;;;;;;6.10;2.80;;;21.90;91.80;;;;;;4774415;30;20067;-88
2022/06/09 08:56:11;;;;;;;7.95;3.65;;;22.00;92.10;;;;;;4775880;29;20051;-88
2022/06/09 08:59:13;;;;;;;7.85;3.72;;;21.80;92.90;;;;;;4776300;30;20031;-87
2022/06/09 09:01:50;;;;;;;9.40;3.13;;;21.60;92.70;;;;;;4775756;30;20104;-88
2022/06/09 09:07:59;;;;;;;7.65;3.28;;;21.50;93.20;;;;;;4809494;24;20147;-87
2022/06/09 09:14:05;;;;;;;7.78;4.05;;;22.10;94.50;;;;;;4781639;24;20607;-89
2022/06/09 09:16:46;;;;;;;8.98;4.07;;;21.30;95.50;;;;;;4773202;30;20091;-88
2022/06/09 09:19:21;;;;;;;7.68;3.25;;;20.90;95.00;;;;;;4879943;24;20052;-88
2022/06/09 09:22:33;;;;;;;8.48;3.05;;;20.90;95.10;;;;;;4791796;30;20027;-88
2022/06/09 09:28:24;;;;;;;8.50;3.63;;;20.80;94.30;;;;;;4799168;24;20074;-88
2022/06/09 09:31:13;;;;;;;8.70;3.53;;;20.80;94.10;;;;;;4937028;24;21209;-88
2022/06/09 10:32:22;;;;;;;4.88;1.80;;;19.80;97.30;;;;;;4780703;24;21270;-87
2022/06/09 10:57:13;;;;;;;4.25;1.92;;;19.80;99.90;;;;;;4771640;30;20051;-88
2022/06/09 11:00:01;;;;;;;4.55;1.70;;;21.80;99.90;;;;;;4941628;24;20059;-87
2022/06/09 11:02:47;;;;;;;4.13;1.90;;;21.00;99.90;;;;;;4787707;29;20028;-87
2022/06/09 11:05:40;;;;;;;8.73;3.47;;;20.20;99.90;;;;;;4756933;30;20523;-85
2022/06/09 11:08:35;;;;;;;10.20;3.70;;;20.60;99.50;;;;;;4882468;24;20058;-86
2022/06/09 11:17:20;;;;;;;4.50;2.00;;;22.00;99.80;;;;;;4789424;24;20070;-86
2022/06/09 11:20:13;;;;;;;8.27;3.50;;;21.00;99.00;;;;;;4774726;30;20039;-83
2022/06/09 11:22:42;;;;;;;6.93;2.43;;;21.20;98.70;;;;;;4780821;24;20048;-86
2022/06/09 11:29:16;;;;;;;12.80;3.67;;;21.50;98.30;;;;;;4783307;24;21082;-87
2022/06/09 11:32:38;;;;;;;;;;;;;;;;;;;;;
2022/06/09 11:35:44;;;;;;;9.57;2.70;;;21.60;98.10;;;;;;4775467;30;20071;-86
2022/06/09 11:38:40;;;;;;;6.30;1.67;;;21.60;98.30;;;;;;4798417;24;20622;-87
2022/06/09 11:41:33;;;;;;;6.18;1.75;;;22.60;97.60;;;;;;4775246;30;20668;-86
2022/06/09 11:44:24;;;;;;;;;;;21.50;97.00;;;;;;4776121;30;20355;-87
2022/06/09 11:46:52;;;;;;;21.88;6.88;;;21.50;97.30;;;;;;4774700;30;20587;-87
2022/06/09 11:49:25;;;;;;;25.33;8.45;;;21.50;97.60;;;;;;4775272;30;20466;-87
2022/06/09 11:52:02;;;;;;;34.90;13.70;;;21.20;97.50;;;;;;4776762;30;20709;-86
2022/06/09 11:54:56;;;;;;;33.22;12.77;;;20.90;97.90;;;;;;4775332;30;20583;-87
2022/06/09 11:57:53;;;;;;;;;;;20.90;98.20;;;;;;4778577;30;20694;-87
2022/06/09 12:00:19;;;;;;;11.50;4.63;;;18.70;96.80;;;;;;4788566;30;20090;-87
2022/06/09 12:03:41;;;;;;;7.78;3.65;;;21.00;96.10;;;;;;4788638;30;20306;-87
2022/06/09 12:06:49;;;;;;;7.75;3.13;;;22.00;96.50;;;;;;4784666;30;20023;-87
2022/06/09 12:09:36;;;;;;;4.95;2.08;;;20.40;96.00;;;;;;4778823;30;20027;-87
2022/06/09 12:12:38;;;;;;;3.03;1.13;;;20.30;93.90;;;;;;4777346;29;20584;-88
2022/06/09 12:15:53;;;;;;;8.60;1.30;;;19.80;93.30;;;;;;4778046;30;20046;-87
2022/06/09 12:18:19;;;;;;;1.38;0.75;;;;;;;;;;4726099;30;20040;-88
2022/06/09 12:37:11;;;;;;;2.50;1.00;;;19.70;94.80;;;;;;5029357;24;20109;-86
2022/06/09 12:39:40;;;;;;;1.60;0.70;;;19.50;95.90;;;;;;4774706;30;20031;-88
2022/06/09 12:45:15;;;;;;;2.28;0.90;;;19.60;95.90;;;;;;4778504;24;20428;-86
2022/06/09 12:48:15;;;;;;;2.35;1.08;;;18.50;94.70;;;;;;4759523;30;20050;-86
2022/06/09 12:50:52;;;;;;;2.60;1.27;;;19.60;96.10;;;;;;4773203;30;20073;-86
2022/06/09 12:53:19;;;;;;;1.27;0.73;;;;;;;;;;4774946;30;20494;-87
2022/06/09 12:55:52;;;;;;;3.25;1.00;;;19.60;95.70;;;;;;4775258;30;20481;-87
2022/06/09 12:58:26;;;;;;;2.95;1.08;;;19.80;96.10;;;;;;4773869;30;20043;-86
2022/06/09 13:00:58;;;;;;;2.33;1.10;;;20.00;96.00;;;;;;4773727;30;20036;-89
2022/06/09 13:03:39;;;;;;;2.35;1.10;;;20.10;95.50;;;;;;4774199;30;20043;-87
2022/06/09 13:06:42;;;;;;;1.95;0.98;;;20.30;96.00;;;;;;4774564;30;20074;-89
2022/06/09 13:09:57;;;;;;;2.50;0.80;;;20.50;95.20;;;;;;4773356;30;20035;-87
2022/06/09 13:16:08;;;;;;;2.92;1.27;;;20.80;94.30;;;;;;4736797;30;20055;-87
2022/06/09 13:18:52;;;;;;;1.58;0.90;;;21.90;93.90;;;;;;4721979;30;20105;-85
2022/06/09 13:38:04;;;;;;;4.45;1.38;;;22.60;91.50;;;;;;5027299;24;20132;-89
2022/06/09 13:40:55;;;;;;;6.78;1.45;;;23.40;91.60;;;;;;4773316;30;20027;-88
2022/06/09 13:43:35;;;;;;;2.85;1.23;;;23.30;90.90;;;;;;4773524;30;20079;-86
2022/06/09 13:46:10;;;;;;;3.00;1.10;;;22.60;90.80;;;;;;4774406;29;20710;-89
2022/06/09 13:48:47;;;;;;;1.80;1.00;;;22.80;90.60;;;;;;4774512;30;20031;-87
2022/06/09 13:51:33;;;;;;;1.80;1.10;;;22.90;90.10;;;;;;4772742;30;20478;-87
2022/06/09 13:54:31;;;;;;;2.45;1.20;;;22.90;90.30;;;;;;4776145;30;20046;-94
2022/06/09 13:57:00;;;;;;;2.80;1.20;;;23.00;90.50;;;;;;4776049;30;20234;-94
2022/06/09 13:59:26;;;;;;;4.43;1.25;;;23.20;90.00;;;;;;4776808;30;20012;-88
2022/06/09 14:01:56;;;;;;;4.32;1.23;;;23.50;89.50;;;;;;4788080;24;20126;-90
2022/06/09 14:04:45;;;;;;;3.60;1.30;;;23.50;88.60;;;;;;4774394;30;20114;-90
2022/06/09 14:07:26;;;;;;;4.28;1.48;;;23.70;87.20;;;;;;4773762;30;20041;-89
2022/06/09 14:09:53;;;;;;;3.25;1.40;;;23.30;88.30;;;;;;4774281;30;20027;-89
2022/06/09 14:12:22;;;;;;;2.65;1.13;;;23.20;87.90;;;;;;4774662;30;20679;-89
2022/06/09 14:14:57;;;;;;;3.60;1.27;;;23.00;90.10;;;;;;4774866;30;20046;-89
2022/06/09 14:17:25;;;;;;;4.47;1.55;;;23.10;89.80;;;;;;4775117;30;20020;-91
2022/06/09 14:19:52;;;;;;;4.05;1.20;;;23.00;87.60;;;;;;4780764;24;20055;-89
2022/06/09 14:25:00;;;;;;;3.75;1.20;;;22.90;87.70;;;;;;4779501;24;20787;-89
2022/06/09 14:47:51;;;;;;;3.90;1.45;;;22.30;90.00;;;;;;4783640;24;20629;-90
2022/06/09 14:50:31;;;;;;;4.63;1.55;;;22.30;88.80;;;;;;4777812;30;20039;-89
2022/06/09 14:55:44;;;;;;;3.85;1.35;;;22.40;88.20;;;;;;4789117;24;20312;-89
2022/06/09 14:58:32;;;;;;;3.92;1.30;;;23.30;88.80;;;;;;4778179;29;20097;-90
2022/06/09 15:01:22;;;;;;;3.88;1.67;;;23.20;90.00;;;;;;4786251;24;20051;-89
2022/06/09 15:19:17;;;;;;;3.08;1.40;;;21.80;90.60;;;;;;4775984;29;20059;-89
2022/06/09 15:22:03;;;;;;;3.00;1.25;;;21.90;90.80;;;;;;4776014;30;20039;-90
2022/06/09 15:24:29;;;;;;;4.13;1.20;;;22.00;90.90;;;;;;4783695;24;20142;-90
2022/06/09 15:26:55;;;;;;;3.42;1.52;;;22.00;91.00;;;;;;4783457;24;20155;-90
2022/06/09 15:34:54;;;;;;;3.17;1.55;;;22.20;90.20;;;;;;4786348;24;20605;-90
2022/06/09 15:37:20;;;;;;;2.25;1.10;;;22.10;90.20;;;;;;4809730;24;20037;-91
2022/06/09 15:39:55;;;;;;;3.63;1.65;;;22.00;90.00;;;;;;4979438;24;20034;-91
2022/06/09 15:42:27;;;;;;;3.20;1.50;;;19.70;90.00;;;;;;4776878;30;20051;-91
2022/06/09 15:47:51;;;;;;;4.95;1.38;;;21.70;90.20;;;;;;4790760;24;20092;-92
2022/06/09 15:55:58;;;;;;;3.75;1.40;;;21.50;91.20;;;;;;4784280;24;20110;-91
2022/06/09 15:58:46;;;;;;;2.75;1.25;;;;;;;;;;4776402;30;20043;-89
2022/06/09 16:04:27;;;;;;;4.03;1.40;;;21.50;93.00;;;;;;4796361;30;20095;-85
2022/06/09 16:06:56;;;;;;;3.97;1.80;;;21.30;92.00;;;;;;4795860;30;20050;-92
2022/06/09 16:09:22;;;;;;;2.92;1.23;;;21.60;93.10;;;;;;4784172;29;20546;-87
2022/06/09 16:11:51;;;;;;;2.33;1.17;;;21.10;92.70;;;;;;4763393;30;20137;-91
2022/06/09 16:14:24;;;;;;;3.70;1.30;;;21.10;92.90;;;;;;4789499;30;20039;-92
2022/06/09 16:20:15;;;;;;;5.88;1.80;;;21.00;92.70;;;;;;4794776;24;20251;-87
2022/06/09 16:22:47;;;;;;;3.88;1.50;;;21.00;93.00;;;;;;4777028;24;20082;-88
2022/06/09 16:26:03;;;;;;;2.75;1.33;;;21.10;93.00;;;;;;4765313;30;20126;-91
2022/06/09 16:34:38;;;;;;;4.57;1.40;;;20.20;93.40;;;;;;4784014;24;20573;-89
2022/06/09 16:39:45;;;;;;;3.65;1.15;;;20.80;93.70;;;;;;4797897;24;20098;-88
2022/06/09 16:47:43;;;;;;;4.38;1.67;;;20.60;96.10;;;;;;4952767;24;20154;-87
2022/06/09 16:50:49;;;;;;;3.53;1.40;;;20.60;96.20;;;;;;4773815;30;20070;-86
2022/06/09 16:53:20;;;;;;;4.00;1.58;;;20.50;96.40;;;;;;4722538;30;20031;-88
2022/06/09 16:56:01;;;;;;;8.10;2.75;;;21.10;97.20;;;;;;4757862;24;20074;-88
2022/06/09 16:58:30;;;;;;;4.85;2.05;;;20.50;98.10;;;;;;4774681;29;20108;-88
2022/06/09 17:01:05;;;;;;;5.28;2.13;;;20.50;98.60;;;;;;4775179;30;20093;-88
2022/06/09 17:03:40;;;;;;;4.20;2.00;;;20.50;99.10;;;;;;4775295;30;20023;-88
2022/06/09 17:06:09;;;;;;;5.72;2.35;;;20.40;99.00;;;;;;4775042;30;20146;-87
2022/06/09 17:09:03;;;;;;;6.35;2.00;;;20.60;99.40;;;;;;4774357;30;20043;-89
2022/06/09 17:11:34;;;;;;;;;;;20.20;99.90;;;;;;4775349;30;20029;-89
2022/06/09 17:14:00;;;;;;;3.55;1.35;;;;;;;;;;4774264;30;19982;-88
2022/06/09 17:16:30;;;;;;;6.68;1.70;;;20.00;99.10;;;;;;4774363;30;20242;-89
2022/06/09 17:19:05;;;;;;;3.85;1.40;;;22.30;99.90;;;;;;4775173;30;20103;-88
2022/06/09 17:21:51;;;;;;;4.38;1.30;;;20.30;99.50;;;;;;4775676;30;20028;-87
2022/06/09 17:24:23;;;;;;;3.35;1.48;;;20.00;99.70;;;;;;4763875;30;20032;-88
2022/06/09 17:32:16;;;;;;;3.05;1.42;;;19.70;99.50;;;;;;4844420;24;20124;-88
2022/06/09 17:34:42;;;;;;;5.88;1.35;;;19.60;99.10;;;;;;4738277;30;20210;-87
2022/06/09 17:41:05;;;;;;;3.17;1.20;;;19.50;99.10;;;;;;4739096;30;20189;-87
2022/06/09 18:42:20;;;;;;;2.40;1.08;;;18.20;99.90;;;;;;4720748;30;20130;-88
2022/06/09 18:44:58;;;;;;;4.13;1.27;;;18.50;99.90;;;;;;4866137;24;20111;-90
2022/06/09 18:47:39;;;;;;;3.40;1.33;;;18.10;99.90;;;;;;4739982;30;20198;-91
2022/06/09 18:50:10;;;;;;;3.13;1.33;;;18.30;99.90;;;;;;4740090;30;20540;-89
2022/06/09 18:52:36;;;;;;;5.20;1.63;;;18.20;99.90;;;;;;4739481;30;20036;-90
2022/06/09 18:55:06;;;;;;;4.85;1.52;;;18.00;99.90;;;;;;4738324;30;20036;-90
2022/06/09 18:57:41;;;;;;;4.30;1.73;;;18.00;99.90;;;;;;4738695;30;20059;-86
2022/06/09 19:00:26;;;;;;;4.07;1.90;;;19.00;99.90;;;;;;4738328;30;20146;-89
2022/06/09 19:02:52;;;;;;;5.28;1.63;;;17.90;99.90;;;;;;4734925;24;20029;-88
2022/06/09 19:05:33;;;;;;;2.95;1.40;;;17.90;99.90;;;;;;4773911;30;20692;-87
2022/06/09 19:08:35;;;;;;;1.83;1.02;;;18.40;99.90;;;;;;4784436;24;20056;-83
2022/06/09 19:11:10;;;;;;;4.70;1.42;;;17.90;99.90;;;;;;4784256;30;20115;-88
2022/06/09 19:13:36;;;;;;;3.55;1.48;;;18.20;99.90;;;;;;4784401;29;20066;-88
2022/06/09 19:18:48;;;;;;;4.30;1.67;;;17.60;99.90;;;;;;4783358;24;20085;-85
2022/06/09 19:35:22;;;;;;;2.28;1.33;;;17.50;99.90;;;;;;4940123;24;20056;-92
2022/06/09 19:37:56;;;;;;;4.75;1.58;;;18.90;99.90;;;;;;4761073;30;20067;-90
2022/06/09 19:46:29;;;;;;;2.80;1.33;;;17.40;99.90;;;;;;4847916;24;20067;-90
2022/06/09 19:48:58;;;;;;;4.78;1.63;;;;;;;;;;4779407;30;20384;-90
2022/06/09 19:51:43;;;;;;;5.85;1.75;;;17.40;99.90;;;;;;4785348;24;20086;-89
2022/06/09 20:02:05;;;;;;;2.95;1.30;;;17.30;99.90;;;;;;4776289;30;20119;-90
2022/06/09 20:04:31;;;;;;;5.30;1.58;;;17.80;99.90;;;;;;4799386;24;20063;-90
2022/06/09 20:15:46;;;;;;;2.97;1.30;;;13.80;99.90;;;;;;5343036;24;20066;-92
2022/06/09 20:38:32;;;;;;;2.28;1.25;;;17.60;99.90;;;;;;4788097;30;20047;-81
2022/06/09 20:40:59;;;;;;;4.85;1.27;;;18.40;99.90;;;;;;4789259;30;20040;-83
2022/06/09 20:43:27;;;;;;;3.70;1.15;;;18.90;99.90;;;;;;4792813;30;20024;-87
2022/06/09 20:46:22;;;;;;;1.73;1.20;;;19.40;99.90;;;;;;4794437;30;20041;-93
2022/06/09 20:49:08;;;;;;;;;;;;;;;;;;;;;
2022/06/09 21:05:25;;;;;;;0.85;0.80;;;21.20;95.50;;;;;;4927042;24;20295;-92
2022/06/09 21:27:34;;;;;;;1.98;1.15;;;22.40;95.20;;;;;;5192761;24;20550;-93
2022/06/09 22:30:13;;;;;;;4.78;1.90;;;20.80;96.20;;;;;;4923823;24;20079;-92
2022/06/09 23:06:40;;;;;;;7.27;2.23;;;20.80;96.30;;;;;;5752237;24;21335;31
2022/06/09 23:15:53;;;;;;;5.80;2.25;;;20.80;96.00;;;;;;4801884;24;20070;-91
2022/06/09 23:21:00;;;;;;;7.07;2.88;;;20.80;96.40;;;;;;4827040;24;20055;-91
2022/06/09 23:23:26;;;;;;;5.25;2.53;;;17.90;96.30;;;;;;4916379;24;20055;-88
2022/06/09 23:48:34;;;;;;;8.55;2.78;;;20.80;96.30;;;;;;4779780;30;20531;-90
2022/06/09 23:51:33;;;;;;;6.95;2.47;;;21.80;96.70;;;;;;4778606;30;20054;-92
2022/06/09 23:56:40;;;;;;;9.07;2.05;;;20.70;96.30;;;;;;4789157;24;20119;-92
2022/06/09 23:59:06;;;;;;;5.10;2.17;;;;;;;;;;4777767;30;20039;-90
